Latest Coastal Weather Observations for Lake Macquarie - Cooranbong

IDN60701

Issued at 3:51 pm EDT Saturday 21 October 2017 (issued every 10 minutes, with the page automatically refreshed every 10 minutes)

About coastal observations | Map of coastal stations | Coastal observations for NSW | Marine services | Other Formats
Station Details ID: 061412 Name: LAKE MACQUARIE AWS Lat: -33.09 Lon: 151.46 Height: 6.0 m
Data from the previous 72 hours. | See also: Recent months at Lake Macquarie - Cooranbong
Date/Time
EDT
Temp
°C
Wind Pressure Rain since
9am
mm
Weather Cloud Vis
km
Sea
Height
m
Swell
Dir  Spd
kts
Gust
kts
hPa Trend Height
m
Period
s
Dir
21/03:30pm 16.9 SSE 6 16 1019.0 - 0.0 - - - - - - -
21/03:00pm 16.6 S 7 15 1019.4 - 0.0 - - - - - - -
21/02:30pm 18.2 S 5 10 1019.3 - 0.0 - - - - - - -
21/02:00pm 18.2 S 6 14 1019.7 - 0.0 - - - - - - -
21/01:30pm 18.5 SE 6 13 1019.7 - 0.0 - - - - - - -
21/01:00pm 18.7 SE 5 10 1020.0 - 0.0 - - - - - - -
21/12:30pm 18.0 S 5 12 1020.6 - 0.0 - - - - - - -
21/12:00pm 17.6 SE 6 12 1021.0 - 0.0 - - - - - - -
21/11:30am 19.0 SE 6 13 1020.8 - 0.0 - - - - - - -
21/11:00am 19.0 S 5 10 1021.2 - 0.0 - - - - - - -
21/10:30am 18.5 SSW 5 13 1021.4 - 0.0 - - - - - - -
21/10:00am 17.5 SSW 5 10 1021.7 - 0.0 - - - - - - -
21/09:30am 15.6 SSW 3 10 1021.9 - 0.0 - - - - - - -
21/09:00am 15.6 SW 5 8 1021.8 - 41.8 - - - - - - -
21/08:30am 14.7 SW 4 9 1021.7 - 41.8 - - - - - - -
21/08:00am 13.9 SW 3 9 1021.9 - 41.8 - - - - - - -
21/07:30am 13.9 SSW 3 6 1021.6 - 41.8 - - - - - - -
21/07:00am 14.0 SW 1 3 1021.7 - 41.8 - - - - - - -
21/06:30am 13.8 SW 2 4 1021.5 - 41.8 - - - - - - -
21/06:00am 14.0 WSW 2 4 1021.5 - 41.8 - - - - - - -
21/05:30am 14.0 SW 3 4 1021.3 - 41.8 - - - - - - -
21/05:00am 13.8 SW 2 4 1021.2 - 41.8 - - - - - - -
21/04:30am 13.9 SW 2 6 1021.6 - 41.8 - - - - - - -
21/04:00am 14.2 WSW 3 5 1021.7 - 41.8 - - - - - - -
21/03:30am 14.0 WSW 2 4 1021.7 - 41.8 - - - - - - -
21/03:00am 13.7 CALM 0 2 1021.9 - 41.8 - - - - - - -
21/02:30am 13.7 SSW 1 2 1022.6 - 41.8 - - - - - - -
21/02:00am 13.9 WSW 1 2 1022.8 - 41.8 - - - - - - -
21/01:30am 14.2 SSE 2 3 1022.9 - 41.6 - - - - - - -
21/01:00am 14.4 SW 2 3 1023.0 - 41.4 - - - - - - -
21/12:30am 14.3 WSW 2 3 1023.1 - 41.4 - - - - - - -
21/12:00am 14.3 SSW 2 6 1023.4 - 41.4 - - - - - - -
 
Date/Time
EDT
Temp
°C
Wind Pressure Rain since
9am
mm
Weather Cloud Vis
km
Sea
Height
m
Swell
Dir  Spd
kts
Gust
kts
hPa Trend Height
m
Period
s
Dir
20/11:30pm 14.4 SW 3 6 1023.5 - 41.4 - - - - - - -
20/11:00pm 14.2 SW 2 4 1023.2 - 41.4 - - - - - - -
20/10:30pm 14.2 SW 3 6 1023.5 - 41.2 - - - - - - -
20/10:00pm 14.4 SW 2 5 1023.4 - 40.8 - - - - - - -
20/09:30pm 14.7 S 4 10 1023.3 - 40.4 - - - - - - -
20/09:00pm 15.2 S 3 9 1023.1 - 39.6 Rain - - - - - -
20/08:30pm 15.2 S 2 7 1022.9 - 39.0 - - - - - - -
20/08:00pm 14.7 SW 2 5 1022.5 - 38.8 - - - - - - -
20/07:30pm 14.5 SSW 1 3 1022.2 - 37.8 - - - - - - -
20/07:00pm 14.4 SW 2 4 1021.9 - 36.6 - - - - - - -
20/06:30pm 14.7 SW 3 9 1021.8 - 34.0 - - - - - - -
20/06:00pm 15.1 SSW 3 8 1021.5 - 30.6 Rain - - - - - -
20/05:30pm 15.3 SSW 3 6 1021.1 - 28.8 - - - - - - -
20/05:00pm 15.5 SSW 3 7 1020.7 - 26.6 - - - - - - -
20/04:30pm 15.6 SSW 4 10 1020.4 - 25.8 - - - - - - -
20/04:00pm 15.9 SSW 3 7 1020.3 - 25.0 - - - - - - -
20/03:30pm 16.2 S 4 7 1020.2 - 24.2 - - - - - - -
20/03:00pm 16.1 SW 2 6 1020.5 - 24.0 Rain - - - - - -
20/02:30pm 16.2 SSW 3 9 1020.6 - 23.0 - - - - - - -
20/02:00pm 16.8 SSW 4 11 1020.3 - 21.0 - - - - - - -
20/01:30pm 17.1 SSW 5 10 1019.8 - 20.4 - - - - - - -
20/01:00pm 17.5 S 5 11 1019.6 - 18.8 - - - - - - -
20/12:30pm 19.7 CALM 0 2 1019.4 - 12.6 - - - - - - -
20/12:00pm 20.0 CALM 0 0 1019.4 - 7.2 Rain - - - - - -
20/11:30am 20.0 N 1 1 1019.6 - 4.2 - - - - - - -
20/11:00am 19.9 CALM 0 2 1019.7 - 2.8 - - - - - - -
20/10:30am 19.9 CALM 0 0 1020.0 - 1.6 - - - - - - -
20/10:00am 19.7 NW 2 3 1020.2 - 1.0 - - - - - - -
20/09:30am 19.4 NNW 2 3 1020.1 - 0.4 - - - - - - -
20/09:00am 19.1 CALM 0 0 1020.1 - 6.0 Rain - - - - - -
20/08:30am 18.7 N 2 3 1020.0 - 4.6 - - - - - - -
20/08:00am 18.6 CALM 0 2 1019.8 - 3.2 - - - - - - -
20/07:30am 18.3 NW 1 3 1019.6 - 2.0 - - - - - - -
20/07:00am 18.0 WNW 2 3 1019.2 - 1.0 - - - - - - -
20/06:30am 17.1 CALM 0 0 1018.8 - 0.8 - - - - - - -
20/06:00am 17.2 CALM 0 0 1018.3 - 0.2 - - - - - - -
20/05:30am 17.2 CALM 0 0 1017.7 - 0.2 - - - - - - -
20/05:00am 16.9 E 1 2 1017.2 - 0.2 - - - - - - -
20/04:30am 16.8 CALM 0 0 1017.2 - 0.2 - - - - - - -
20/04:00am 16.3 CALM 0 2 1017.0 - 0.2 - - - - - - -
20/03:30am 16.0 CALM 0 0 1016.8 - 0.2 - - - - - - -
20/03:00am 15.7 CALM 0 0 1017.0 - 0.2 - - - - - - -
20/02:30am 15.6 CALM 0 0 1017.0 - 0.2 - - - - - - -
20/02:00am 15.7 CALM 0 0 1017.3 - 0.2 - - - - - - -
20/01:30am 15.5 CALM 0 0 1017.6 - 0.2 - - - - - - -
20/01:00am 15.8 CALM 0 0 1017.9 - 0.2 - - - - - - -
20/12:30am 16.1 CALM 0 0 1018.4 - 0.2 - - - - - - -
20/12:00am 16.5 CALM 0 0 1018.8 - 0.2 - - - - - - -
 
Date/Time
EDT
Temp
°C
Wind Pressure Rain since
9am
mm
Weather Cloud Vis
km
Sea
Height
m
Swell
Dir  Spd
kts
Gust
kts
hPa Trend Height
m
Period
s
Dir
19/11:30pm 16.9 CALM 0 0 1018.9 - 0.2 - - - - - - -
19/11:00pm 17.1 CALM 0 0 1019.1 - 0.2 - - - - - - -
19/10:30pm 17.9 CALM 0 0 1019.2 - 0.2 - - - - - - -
19/10:00pm 18.7 CALM 0 0 1019.4 - 0.2 - - - - - - -
19/09:30pm 19.6 NE 1 2 1019.4 - 0.2 - - - - - - -
19/09:00pm 21.0 NE 2 3 1019.4 - 0.2 - - - - - - -
19/08:30pm 19.7 ENE 1 2 1019.3 - 0.2 - - - - - - -
19/08:00pm 20.6 CALM 0 0 1019.1 - 0.2 - - - - - - -
19/07:30pm 21.4 CALM 0 1 1019.1 - 0.2 - - - - - - -
19/07:00pm 22.4 ESE 3 4 1018.8 - 0.2 - - - - - - -
19/06:30pm 23.7 ESE 4 5 1018.7 - 0.2 - - - - - - -
19/06:00pm 24.6 ESE 5 7 1018.7 - 0.2 - - - - - - -
19/05:30pm 25.1 ESE 6 9 1018.8 - 0.2 - - - - - - -
19/05:00pm 25.4 E 7 11 1018.9 - 0.2 - - - - - - -
19/04:30pm 25.3 ESE 8 11 1019.0 - 0.2 - - - - - - -
19/04:00pm 25.6 E 7 12 1019.3 - 0.2 - - - - - - -
19/03:30pm 25.8 E 7 13 1019.7 - 0.2 - - - - - - -
19/03:00pm 25.6 ESE 8 13 1020.2 - 0.2 - - - - - - -
19/02:30pm 25.7 ESE 7 11 1020.7 - 0.2 - - - - - - -
19/02:00pm 25.9 ESE 8 13 1021.2 - 0.2 - - - - - - -
19/01:30pm 25.8 ESE 8 13 1021.8 - 0.2 - - - - - - -
19/01:00pm 27.8 NNW 2 5 1022.1 - 0.2 - - - - - - -
19/12:30pm 26.8 NNE 4 10 1022.6 - 0.2 - - - - - - -
19/12:00pm 26.3 NNE 3 8 1023.2 - 0.2 - - - - - - -
19/11:30am 25.7 NE 4 8 1023.7 - 0.2 - - - - - - -
19/11:00am 24.4 ENE 4 8 1024.2 - 0.2 - - - - - - -
19/10:30am 24.1 NNE 3 7 1024.7 - 0.0 - - - - - - -
19/10:00am 23.3 NE 3 6 1025.2 - 0.0 - - - - - - -
19/09:30am 22.3 NNW 3 7 1025.5 - 0.0 - - - - - - -
19/09:00am 21.1 NNE 3 6 1025.6 - 0.0 - - - - - - -
19/08:30am 19.2 N 2 5 1025.6 - 0.0 - - - - - - -
19/08:00am 16.6 CALM 0 0 1025.7 - 0.0 - - - - - - -
19/07:30am 14.3 CALM 0 0 1025.6 - 0.0 - - - - - - -
19/07:00am 12.0 CALM 0 0 1025.4 - 0.0 - - - - - - -
19/06:30am 11.8 CALM 0 0 1025.2 - 0.0 - - - - - - -
19/06:00am 12.1 CALM 0 0 1025.1 - 0.0 - - - - - - -
19/05:30am 12.3 CALM 0 1 1024.8 - 0.0 - - - - - - -
19/05:00am 12.7 CALM 0 0 1024.5 - 0.0 - - - - - - -
19/04:30am 12.6 CALM 0 1 1024.4 - 0.0 - - - - - - -
19/04:00am 12.9 WNW 1 2 1024.7 - 0.0 - - - - - - -
19/03:30am 12.9 NNE 1 3 1024.8 - 0.0 - - - - - - -
19/03:00am 12.6 CALM 0 1 1025.2 - 0.0 - - - - - - -
19/02:30am 13.0 CALM 0 0 1025.3 - 0.0 - - - - - - -
19/02:00am 13.2 CALM 0 0 1025.4 - 0.0 - - - - - - -
19/01:30am 13.1 CALM 0 0 1025.9 - 0.0 - - - - - - -
19/01:00am 13.7 CALM 0 0 1026.4 - 0.0 - - - - - - -
19/12:30am 13.8 CALM 0 0 1026.6 - 0.0 - - - - - - -
19/12:00am 14.5 CALM 0 0 1026.7 - 0.0 - - - - - - -
 
Date/Time
EDT
Temp
°C
Wind Pressure Rain since
9am
mm
Weather Cloud Vis
km
Sea
Height
m
Swell
Dir  Spd
kts
Gust
kts
hPa Trend Height
m
Period
s
Dir
18/11:30pm 15.0 CALM 0 0 1026.7 - 0.0 - - - - - - -
18/11:00pm 16.1 CALM 0 0 1026.9 - 0.0 - - - - - - -
18/10:30pm 17.4 N 1 2 1026.9 - 0.0 - - - - - - -
18/10:00pm 17.7 N 3 5 1027.0 - 0.0 - - - - - - -
18/09:30pm 18.5 NNE 1 3 1026.9 - 0.0 - - - - - - -
18/09:00pm 19.6 NE 5 11 1026.7 - 0.0 - - - - - - -
18/08:30pm 19.4 NE 2 6 1026.5 - 0.0 - - - - - - -
18/08:00pm 19.9 NE 4 8 1026.2 - 0.0 - - - - - - -
18/07:30pm 19.9 ENE 4 10 1026.0 - 0.0 - - - - - - -
18/07:00pm 20.3 NE 4 7 1025.8 - 0.0 - - - - - - -
18/06:30pm 20.8 ENE 5 11 1025.5 - 0.0 - - - - - - -
18/06:00pm 21.6 ENE 6 14 1025.3 - 0.0 - - - - - - -
18/05:30pm 21.9 E 8 17 1025.2 - 0.0 - - - - - - -
18/05:00pm 22.3 ENE 8 17 1025.1 - 0.0 - - - - - - -
18/04:30pm 22.1 E 9 18 1025.1 - 0.0 - - - - - - -
18/04:00pm 21.6 E 10 17 1025.2 - 0.0 - - - - - - -

Other Formats:

Comma delimited format used in spreadsheet applications
http://www.bom.gov.au/fwo/IDN60701/IDN60701.95767.axf

JavaScript Object Notation format (JSON) in row-major order
http://www.bom.gov.au/fwo/IDN60701/IDN60701.95767.json